Earlham, Iowa
Current Conditions -  °F | °C
As of 1:35 AM on Wednesday 22 Oct 2014 (Local Time) from KPRO Reporting Station
Clear Clear  
Wind Chill: 41°   Ceiling: Unl
Heat Index: 45°   Visibility: 10mi
Dew Point: 40°   Wind: 6mph
Humidity: 85%   Direction: 120°ESE
Pressure: 30.16"   Gusts: NA
Location:  41.49°N, 94.12°W
Report Text: KPRO 220635Z AUTO 12005KT 10SM CLR 07/05 A3016 RMK AO2 T00700046
Loading
Personal Weather Stations






























Interactive Weather Map
Tropical Storm Tracking
New forecast layout! Learn more

10-Day Weather Forecast

Advertisements
Track Severe Weather on mobile